Pine River, Minnesota
Current Conditions -  °F | °C
As of 8:53 PM on Wednesday 26 Nov 2014 (Local Time) from KPWC Reporting Station
Clear Clear  
Wind Chill: -12°   Ceiling: Unl
Heat Index:   Visibility: 10mi
Dew Point: -6°   Wind: 8mph
Humidity: 72%   Direction: 320°NW
Pressure: 30.41"   Gusts: NA
Location:  46.72°N, 94.4°W
Report Text: KPWC 270253Z AUTO 32007KT 10SM CLR M17/M21 A3041 RMK AO2
Loading
Personal Weather Stations






























Interactive Weather Map New forecast layout! Learn more

10-Day Weather Forecast

Advertisements
Track Severe Weather on mobile